Time;durP1;ratioP1;P1;durP2;ratioP2;P2;SDS_P1;SDS_P2;PMS_P1;PMS_P2;Temp;Humidity;BMP_temperature;BMP_pressure;BME280_temperature;BME280_humidity;BME280_pressure;Samples;Min_cycle;Max_cycle;Signal;HPM_P1;HPM_P2
2022/05/03 00:00:04;;;;;;;8.07;7.37;;;16.30;50.30;;;;;;5096927;28;20436;-69
2022/05/03 00:02:40;;;;;;;8.70;7.90;;;16.30;50.40;;;;;;5096802;28;20455;-69
2022/05/03 00:05:10;;;;;;;8.13;7.33;;;16.20;50.40;;;;;;5096681;28;20428;-69
2022/05/03 00:07:47;;;;;;;8.80;7.90;;;16.20;50.60;;;;;;5096895;28;20432;-69
2022/05/03 00:10:19;;;;;;;10.90;8.10;;;16.10;50.60;;;;;;5096491;28;20440;-69
2022/05/03 00:12:51;;;;;;;9.90;8.97;;;16.10;50.80;;;;;;5096738;28;20507;-69
2022/05/03 00:15:19;;;;;;;12.20;7.63;;;16.00;50.90;;;;;;5096337;28;20467;-69
2022/05/03 00:17:49;;;;;;;8.60;7.60;;;15.90;50.90;;;;;;5096651;28;20456;-69
2022/05/03 00:20:16;;;;;;;9.23;7.60;;;15.90;51.20;;;;;;5096318;28;20440;-69
2022/05/03 00:22:45;;;;;;;8.23;7.33;;;15.80;51.30;;;;;;5096562;28;20476;-69
2022/05/03 00:25:12;;;;;;;11.03;8.20;;;15.80;51.50;;;;;;5096591;28;20436;-69
2022/05/03 00:27:39;;;;;;;12.03;8.20;;;15.80;51.70;;;;;;5097208;28;20455;-69
2022/05/03 00:30:08;;;;;;;9.50;8.60;;;15.80;51.70;;;;;;5096115;28;20946;-69
2022/05/03 00:32:35;;;;;;;10.90;8.63;;;15.70;51.90;;;;;;5095914;28;20974;-69
2022/05/03 00:35:04;;;;;;;9.90;8.50;;;15.70;52.00;;;;;;5096053;28;20484;-69
2022/05/03 00:37:31;;;;;;;8.33;7.53;;;15.70;52.10;;;;;;5095888;28;20938;-68
2022/05/03 00:39:59;;;;;;;8.60;7.90;;;15.60;52.20;;;;;;5095926;28;20509;-69
2022/05/03 00:42:35;;;;;;;9.43;8.50;;;15.60;52.50;;;;;;5096243;28;20987;-69
2022/05/03 00:45:05;;;;;;;8.80;7.90;;;15.50;52.60;;;;;;5095845;28;20451;-69
2022/05/03 00:47:52;;;;;;;10.03;8.20;;;15.50;52.90;;;;;;5096111;28;20467;-69
2022/05/03 00:50:33;;;;;;;9.80;7.73;;;15.50;52.90;;;;;;5096090;28;20474;-69
2022/05/03 00:53:05;;;;;;;11.43;8.60;;;15.50;53.00;;;;;;5078887;28;20496;-69
2022/05/03 00:56:02;;;;;;;10.83;8.20;;;15.40;53.10;;;;;;5075671;28;20571;-69
2022/05/03 00:58:55;;;;;;;9.67;8.80;;;15.40;53.30;;;;;;5075428;28;20436;-69
2022/05/03 01:01:31;;;;;;;9.03;8.10;;;15.30;53.50;;;;;;5075393;28;20464;-69
2022/05/03 01:04:11;;;;;;;10.20;9.20;;;15.20;53.60;;;;;;5075425;28;20463;-69
2022/05/03 01:06:53;;;;;;;10.33;9.23;;;15.20;53.80;;;;;;5075171;28;20437;-69
2022/05/03 01:09:35;;;;;;;10.07;8.50;;;15.10;54.00;;;;;;5075445;28;20436;-69
2022/05/03 01:12:17;;;;;;;10.53;9.43;;;15.10;54.20;;;;;;5075278;28;20479;-69
2022/05/03 01:14:57;;;;;;;8.70;7.83;;;15.00;54.30;;;;;;5075273;28;20525;-69
2022/05/03 01:17:30;;;;;;;14.10;9.00;;;15.00;54.70;;;;;;5075543;28;20793;-69
2022/05/03 01:20:04;;;;;;;11.10;9.23;;;14.90;55.00;;;;;;5075345;28;20437;-69
2022/05/03 01:22:59;;;;;;;9.47;7.67;;;14.90;55.10;;;;;;5075129;28;20473;-69
2022/05/03 01:25:47;;;;;;;10.40;8.00;;;14.90;55.20;;;;;;5075152;28;20432;-69
2022/05/03 01:28:30;;;;;;;8.53;7.70;;;14.90;55.50;;;;;;5075141;28;20796;-69
2022/05/03 01:31:06;;;;;;;10.93;8.97;;;14.80;55.50;;;;;;5074931;28;20894;-69
2022/05/03 01:33:34;;;;;;;10.10;8.83;;;14.80;55.50;;;;;;5074750;28;20436;-69
2022/05/03 01:36:03;;;;;;;11.27;8.23;;;14.70;55.40;;;;;;5074611;28;20853;-69
2022/05/03 01:38:40;;;;;;;10.20;8.37;;;14.60;55.50;;;;;;5074537;28;20967;-69
2022/05/03 01:41:18;;;;;;;11.10;7.90;;;14.60;55.80;;;;;;5074733;28;20475;-69
2022/05/03 01:44:10;;;;;;;8.77;7.90;;;14.50;56.20;;;;;;5074607;28;20466;-69
2022/05/03 01:46:39;;;;;;;9.63;8.10;;;14.40;56.60;;;;;;5074451;28;20866;-69
2022/05/03 01:52:07;;;;;;;12.30;8.80;;;14.40;57.10;;;;;;5074311;28;20941;-70
2022/05/03 01:55:00;;;;;;;10.40;8.80;;;14.40;57.40;;;;;;5074772;28;20513;-69
2022/05/03 01:57:31;;;;;;;9.37;8.47;;;14.30;57.60;;;;;;5074471;28;20433;-69
2022/05/03 02:00:05;;;;;;;9.70;8.77;;;14.30;57.80;;;;;;5074515;28;20436;-69
2022/05/03 02:02:53;;;;;;;9.60;8.43;;;14.20;57.90;;;;;;5074095;28;21010;-69
2022/05/03 02:05:27;;;;;;;10.33;8.70;;;14.20;58.10;;;;;;5074438;28;20437;-69
2022/05/03 02:07:56;;;;;;;8.83;7.93;;;14.20;58.30;;;;;;5074414;28;20447;-69
2022/05/03 02:10:42;;;;;;;8.97;8.07;;;14.20;58.40;;;;;;5074129;28;20448;-69
2022/05/03 02:14:44;;;;;;;10.03;8.13;;;14.10;58.30;;;;;;5074206;28;20433;-69
2022/05/03 02:16:29;;;;;;;8.27;7.50;;;14.10;58.40;;;;;;5073881;28;20520;-69
2022/05/03 02:19:09;;;;;;;8.60;7.83;;;14.00;58.60;;;;;;5073634;28;20614;-69
2022/05/03 02:21:47;;;;;;;11.90;7.87;;;14.00;58.60;;;;;;5074217;28;20548;-69
2022/05/03 02:24:26;;;;;;;8.60;7.80;;;14.00;58.90;;;;;;5074158;28;20456;-70
2022/05/03 02:26:58;;;;;;;10.97;8.73;;;13.90;58.90;;;;;;5074132;28;20428;-69
2022/05/03 02:29:32;;;;;;;8.97;8.13;;;13.90;59.10;;;;;;5074139;28;20425;-69
2022/05/03 02:32:06;;;;;;;9.10;8.20;;;13.90;59.20;;;;;;5073773;28;20475;-69
2022/05/03 02:34:47;;;;;;;8.57;7.50;;;13.90;59.40;;;;;;5073964;28;20463;-69
2022/05/03 02:37:19;;;;;;;10.10;8.70;;;13.90;59.50;;;;;;5073919;28;20947;-69
2022/05/03 02:39:52;;;;;;;9.47;8.20;;;13.90;59.60;;;;;;5073673;28;20442;-69
2022/05/03 02:42:20;;;;;;;9.30;8.40;;;13.80;59.50;;;;;;5073864;28;20547;-69
2022/05/03 02:44:47;;;;;;;8.13;7.33;;;13.80;59.60;;;;;;5073400;28;20492;-69
2022/05/03 02:47:27;;;;;;;9.90;8.43;;;13.80;59.90;;;;;;5073891;28;20452;-70
2022/05/03 02:50:13;;;;;;;10.50;8.20;;;13.80;60.10;;;;;;5073648;28;20923;-69
2022/05/03 02:52:43;;;;;;;8.50;7.70;;;13.70;60.10;;;;;;5073785;28;20475;-69
2022/05/03 02:55:19;;;;;;;8.57;7.83;;;13.70;60.30;;;;;;5073720;28;20476;-69
2022/05/03 02:57:54;;;;;;;11.93;7.73;;;13.70;60.50;;;;;;5073794;28;20429;-69
2022/05/03 03:03:19;;;;;;;9.63;8.63;;;13.50;60.50;;;;;;5073697;28;20431;-69
2022/05/03 03:05:54;;;;;;;9.57;8.67;;;13.50;60.70;;;;;;5073382;28;20431;-69
2022/05/03 03:08:23;;;;;;;10.43;7.10;;;13.50;60.80;;;;;;5073904;28;20425;-69
2022/05/03 03:10:53;;;;;;;9.13;7.13;;;13.40;60.90;;;;;;5073186;28;20456;-69
2022/05/03 03:13:32;;;;;;;8.90;8.10;;;13.40;61.20;;;;;;5073399;28;20448;-70
2022/05/03 03:15:59;;;;;;;9.50;8.50;;;13.40;61.50;;;;;;5073226;28;20464;-69
2022/05/03 03:18:28;;;;;;;9.07;8.27;;;13.40;61.90;;;;;;5073132;28;20463;-70
2022/05/03 03:20:58;;;;;;;10.83;8.27;;;13.40;61.80;;;;;;5073387;28;20487;-69
2022/05/03 03:23:28;;;;;;;9.10;8.00;;;13.40;62.10;;;;;;5073404;28;20443;-70
2022/05/03 03:25:55;;;;;;;8.73;7.93;;;13.40;62.20;;;;;;5073755;28;20456;-70
2022/05/03 03:28:23;;;;;;;8.90;8.00;;;13.30;62.10;;;;;;5073738;28;20539;-70
2022/05/03 03:30:52;;;;;;;11.20;8.23;;;13.30;62.20;;;;;;5076767;28;20959;-70
2022/05/03 03:33:20;;;;;;;11.13;7.87;;;13.30;62.40;;;;;;5077441;28;20448;-70
2022/05/03 03:35:48;;;;;;;10.00;9.00;;;13.30;62.70;;;;;;5077340;28;20896;-70
2022/05/03 03:38:17;;;;;;;13.77;8.70;;;13.20;62.60;;;;;;5077374;28;20452;-70
2022/05/03 03:40:46;;;;;;;9.30;8.40;;;13.20;62.70;;;;;;5077147;28;20452;-70
2022/05/03 03:43:13;;;;;;;9.47;8.10;;;13.20;63.00;;;;;;5077519;28;20464;-70
2022/05/03 03:45:41;;;;;;;9.30;7.60;;;13.10;63.10;;;;;;5077088;28;20498;-70
2022/05/03 03:48:10;;;;;;;9.60;7.80;;;13.10;63.00;;;;;;5076842;28;20456;-70
2022/05/03 03:50:39;;;;;;;8.73;7.93;;;13.10;63.10;;;;;;5077099;28;20451;-70
2022/05/03 03:53:06;;;;;;;9.73;8.83;;;13.10;63.10;;;;;;5077021;28;20999;-70
2022/05/03 03:55:35;;;;;;;11.03;9.93;;;13.00;63.00;;;;;;5077098;28;20494;-70
2022/05/03 03:58:03;;;;;;;8.47;7.67;;;13.00;63.20;;;;;;5076790;28;20456;-70
2022/05/03 04:00:30;;;;;;;11.73;8.53;;;13.00;63.40;;;;;;5077137;28;20456;-70
2022/05/03 04:02:58;;;;;;;10.80;8.10;;;12.90;63.40;;;;;;5077185;28;20500;-70
2022/05/03 04:05:27;;;;;;;9.47;8.40;;;12.90;63.40;;;;;;5076677;28;20436;-70
2022/05/03 04:07:55;;;;;;;10.73;9.13;;;12.80;63.50;;;;;;5077349;28;20473;-70
2022/05/03 04:10:22;;;;;;;10.20;9.20;;;12.80;63.80;;;;;;5076683;28;20497;-70
2022/05/03 04:12:50;;;;;;;10.43;8.17;;;12.80;64.10;;;;;;5076388;28;20494;-70
2022/05/03 04:15:17;;;;;;;8.90;7.90;;;12.70;64.00;;;;;;5076528;28;20476;-69
2022/05/03 04:17:45;;;;;;;11.13;9.20;;;12.80;64.10;;;;;;5076435;28;20449;-69
2022/05/03 04:20:13;;;;;;;10.57;8.37;;;12.70;64.20;;;;;;5076558;28;20459;-70
2022/05/03 04:22:40;;;;;;;14.47;8.83;;;12.70;64.50;;;;;;5075109;28;20841;-70
2022/05/03 04:25:07;;;;;;;9.30;8.37;;;12.70;64.40;;;;;;5076754;28;20444;-70
2022/05/03 04:27:34;;;;;;;9.00;8.10;;;12.70;64.50;;;;;;5076927;28;20463;-70
2022/05/03 04:30:03;;;;;;;11.03;7.73;;;12.60;64.60;;;;;;5076409;28;20453;-70
2022/05/03 04:32:31;;;;;;;10.00;7.70;;;12.60;64.70;;;;;;5075632;28;20996;-70
2022/05/03 04:34:58;;;;;;;9.50;8.13;;;12.60;65.70;;;;;;5076432;28;20484;-70
2022/05/03 04:37:25;;;;;;;9.40;8.47;;;12.50;64.90;;;;;;5076365;28;20472;-70
2022/05/03 04:39:52;;;;;;;9.43;7.50;;;12.50;65.00;;;;;;5076104;28;20449;-70
2022/05/03 04:42:19;;;;;;;9.07;7.43;;;12.50;64.80;;;;;;5075969;28;20472;-69
2022/05/03 04:44:46;;;;;;;8.27;7.40;;;12.50;64.80;;;;;;5075575;28;20844;-70
2022/05/03 04:47:14;;;;;;;11.27;8.27;;;12.50;65.10;;;;;;5075644;28;20951;-70
2022/05/03 04:49:41;;;;;;;9.30;7.23;;;12.50;65.20;;;;;;5075939;28;20445;-69
2022/05/03 04:52:09;;;;;;;10.20;8.50;;;12.50;65.30;;;;;;5075540;28;21004;-70
2022/05/03 04:54:36;;;;;;;10.53;7.33;;;12.50;65.40;;;;;;5075847;28;20482;-69
2022/05/03 04:57:05;;;;;;;8.33;7.20;;;12.40;65.80;;;;;;5075595;28;20568;-69
2022/05/03 04:59:32;;;;;;;8.27;7.37;;;12.40;65.50;;;;;;5075147;28;20449;-69
2022/05/03 05:02:00;;;;;;;8.20;6.77;;;12.40;65.50;;;;;;5076001;28;20472;-69
2022/05/03 05:04:29;;;;;;;9.73;6.50;;;12.50;65.70;;;;;;5075751;28;20441;-70
2022/05/03 05:06:56;;;;;;;7.40;6.60;;;12.50;65.70;;;;;;5076099;28;20503;-70
2022/05/03 05:09:22;;;;;;;6.90;6.20;;;12.50;65.80;;;;;;5075578;28;20967;-70
2022/05/03 05:11:49;;;;;;;8.57;7.60;;;12.50;65.70;;;;;;5075961;28;20477;-70
2022/05/03 05:14:19;;;;;;;8.73;6.37;;;12.50;65.50;;;;;;5075996;28;20449;-70
2022/05/03 05:16:46;;;;;;;8.67;7.37;;;12.50;65.80;;;;;;5075483;28;20489;-70
2022/05/03 05:19:13;;;;;;;7.37;6.57;;;12.50;65.90;;;;;;5075873;28;20444;-70
2022/05/03 05:21:41;;;;;;;7.83;7.00;;;12.50;66.80;;;;;;5075391;28;20465;-70
2022/05/03 05:24:11;;;;;;;7.47;6.70;;;12.50;65.90;;;;;;5075619;28;20437;-69
2022/05/03 05:26:39;;;;;;;10.27;7.60;;;12.50;66.10;;;;;;5075328;28;20944;-69
2022/05/03 05:29:05;;;;;;;9.67;7.07;;;12.60;66.70;;;;;;5075901;28;20452;-69
2022/05/03 05:31:32;;;;;;;8.03;7.33;;;12.60;66.50;;;;;;5075797;28;20468;-70
2022/05/03 05:33:59;;;;;;;8.33;6.97;;;12.60;66.60;;;;;;5075835;28;20457;-70
2022/05/03 05:36:26;;;;;;;8.30;7.27;;;12.70;66.70;;;;;;5075432;28;20480;-70
2022/05/03 05:38:54;;;;;;;8.17;6.73;;;12.60;66.90;;;;;;5075276;28;20449;-70
2022/05/03 05:41:21;;;;;;;8.73;6.80;;;12.70;67.10;;;;;;5075581;28;20468;-70
2022/05/03 05:43:48;;;;;;;7.97;7.17;;;12.70;67.00;;;;;;5075074;28;20847;-70
2022/05/03 05:46:15;;;;;;;8.40;7.10;;;12.80;67.00;;;;;;5075517;28;20482;-70
2022/05/03 05:48:42;;;;;;;9.17;6.87;;;12.80;65.70;;;;;;5075519;28;20448;-70
2022/05/03 05:51:09;;;;;;;8.57;7.07;;;12.90;65.70;;;;;;5075414;28;20979;-70
2022/05/03 05:53:35;;;;;;;9.03;7.07;;;12.90;65.40;;;;;;5075301;28;20441;-70
2022/05/03 05:56:05;;;;;;;7.67;6.87;;;12.90;65.40;;;;;;5075619;28;20483;-70
2022/05/03 05:58:32;;;;;;;8.53;7.23;;;13.00;65.20;;;;;;5074974;28;20278;-70
2022/05/03 06:00:59;;;;;;;10.07;7.50;;;13.00;64.40;;;;;;5075174;28;20477;-70
2022/05/03 06:03:28;;;;;;;8.17;7.30;;;13.00;65.00;;;;;;5075092;28;20488;-70
2022/05/03 06:05:56;;;;;;;13.87;7.40;;;13.00;65.10;;;;;;5075061;28;20491;-70
2022/05/03 06:08:23;;;;;;;10.20;8.03;;;13.10;64.70;;;;;;5075274;28;20564;-70
2022/05/03 06:10:50;;;;;;;10.67;7.23;;;13.10;63.80;;;;;;5075008;28;20475;-70
2022/05/03 06:13:19;;;;;;;9.13;7.40;;;13.00;64.00;;;;;;5074845;28;20448;-70
2022/05/03 06:15:48;;;;;;;8.43;7.63;;;13.00;63.90;;;;;;5074607;28;20485;-70
2022/05/03 06:18:15;;;;;;;10.07;7.97;;;13.00;64.30;;;;;;5074710;28;20457;-70
2022/05/03 06:20:42;;;;;;;10.10;8.17;;;13.10;64.60;;;;;;5074740;28;20448;-70
2022/05/03 06:23:08;;;;;;;10.93;8.47;;;13.10;65.10;;;;;;5074270;28;20480;-70
2022/05/03 06:25:35;;;;;;;9.30;7.37;;;13.10;65.40;;;;;;5074572;28;20425;-70
2022/05/03 06:28:03;;;;;;;12.70;8.70;;;13.10;63.60;;;;;;5074564;28;20473;-70
2022/05/03 06:30:32;;;;;;;9.20;7.47;;;13.20;64.70;;;;;;5074395;28;20449;-70
2022/05/03 06:32:58;;;;;;;8.43;7.57;;;13.20;65.10;;;;;;5075026;28;20465;-71
2022/05/03 06:35:26;;;;;;;10.37;7.20;;;13.30;65.00;;;;;;5074788;28;20451;-70
2022/05/03 06:37:53;;;;;;;10.20;8.17;;;13.40;64.50;;;;;;5074519;28;20537;-70
2022/05/03 06:40:20;;;;;;;9.10;7.20;;;13.50;64.50;;;;;;5074543;28;20464;-71
2022/05/03 06:42:46;;;;;;;10.87;7.17;;;13.60;64.70;;;;;;5074035;28;20465;-70
2022/05/03 06:45:13;;;;;;;8.10;7.23;;;13.70;63.60;;;;;;5074144;28;20490;-70
2022/05/03 06:47:42;;;;;;;10.27;8.27;;;13.80;61.90;;;;;;5074173;28;20449;-70
2022/05/03 06:50:10;;;;;;;9.93;6.83;;;13.90;62.10;;;;;;5074251;28;20433;-71
2022/05/03 06:52:58;;;;;;;8.20;7.10;;;13.90;61.10;;;;;;5087920;28;20487;-71
2022/05/03 06:55:25;;;;;;;8.60;7.03;;;14.10;61.50;;;;;;5095345;28;20432;-71
2022/05/03 06:57:52;;;;;;;8.70;7.80;;;14.20;61.10;;;;;;5094846;28;20435;-71
2022/05/03 07:00:19;;;;;;;9.17;6.23;;;14.40;60.80;;;;;;5094774;28;20459;-71
2022/05/03 07:02:47;;;;;;;7.60;6.03;;;14.50;59.80;;;;;;5094669;28;20468;-71
2022/05/03 07:05:14;;;;;;;7.20;5.07;;;14.60;59.50;;;;;;5093709;28;20451;-71
2022/05/03 07:07:41;;;;;;;9.20;5.87;;;14.70;58.70;;;;;;5094301;28;20448;-70
2022/05/03 07:10:09;;;;;;;6.67;5.47;;;14.90;58.40;;;;;;5094436;28;20463;-70
2022/05/03 07:12:36;;;;;;;11.33;6.97;;;15.00;57.90;;;;;;5094518;28;20467;-71
2022/05/03 07:15:04;;;;;;;7.20;6.03;;;15.20;57.70;;;;;;5094126;28;20448;-71
2022/05/03 07:23:16;;;;;;;8.83;6.63;;;15.80;56.30;;;;;;5031878;28;21043;-71
2022/05/03 07:25:44;;;;;;;10.47;7.03;;;16.10;55.90;;;;;;5032294;28;20537;-71
2022/05/03 07:28:11;;;;;;;6.97;6.27;;;16.20;53.80;;;;;;5061402;28;20451;-72
2022/05/03 07:30:38;;;;;;;9.83;6.87;;;16.40;52.20;;;;;;5095434;28;20447;-72
2022/05/03 07:33:05;;;;;;;8.43;6.90;;;16.50;51.80;;;;;;5095325;28;20454;-71
2022/05/03 07:35:34;;;;;;;9.47;5.20;;;16.60;50.90;;;;;;5095144;28;20447;-72
2022/05/03 07:38:01;;;;;;;14.30;6.40;;;16.70;50.80;;;;;;5095289;28;20448;-73
2022/05/03 07:40:28;;;;;;;11.30;6.70;;;16.90;51.20;;;;;;5094574;28;20531;-72
2022/05/03 07:42:55;;;;;;;12.20;6.80;;;16.90;50.30;;;;;;5093799;28;20501;-72
2022/05/03 07:45:22;;;;;;;8.23;5.60;;;17.10;50.20;;;;;;5095971;28;20435;-73
2022/05/03 07:47:49;;;;;;;11.57;6.03;;;17.30;50.60;;;;;;5096009;28;20456;-72
2022/05/03 07:50:16;;;;;;;7.87;5.37;;;17.60;51.00;;;;;;5096089;28;20458;-72
2022/05/03 07:52:44;;;;;;;9.47;6.20;;;17.80;50.50;;;;;;5095519;28;21016;-72
2022/05/03 07:55:11;;;;;;;7.70;6.37;;;18.10;49.50;;;;;;5095934;28;20444;-72
2022/05/03 07:57:38;;;;;;;5.80;5.10;;;18.20;47.20;;;;;;5096030;28;20491;-72
2022/05/03 08:00:06;;;;;;;6.60;4.77;;;18.40;47.20;;;;;;5096032;28;20459;-72
2022/05/03 08:02:35;;;;;;;5.47;4.90;;;18.50;44.70;;;;;;5095725;28;20467;-72
2022/05/03 08:05:02;;;;;;;6.73;5.57;;;18.60;45.70;;;;;;5096202;28;20439;-72
2022/05/03 08:07:28;;;;;;;6.93;5.30;;;18.70;45.30;;;;;;5096296;28;20443;-73
2022/05/03 08:09:57;;;;;;;5.50;4.40;;;18.90;45.90;;;;;;5096143;28;20459;-72
2022/05/03 08:12:23;;;;;;;5.53;4.63;;;19.10;45.60;;;;;;5096034;28;20478;-72
2022/05/03 08:14:51;;;;;;;4.97;3.90;;;19.30;44.70;;;;;;5096265;28;20451;-72
2022/05/03 08:17:18;;;;;;;11.93;4.93;;;19.50;43.80;;;;;;5098415;28;20479;-72
2022/05/03 08:19:45;;;;;;;8.90;4.60;;;19.70;43.80;;;;;;5099803;28;20507;-72
2022/05/03 08:22:12;;;;;;;6.00;4.30;;;19.90;43.50;;;;;;5099215;28;20470;-72
2022/05/03 08:24:39;;;;;;;5.10;4.60;;;20.10;42.70;;;;;;5099326;28;20863;-72
2022/05/03 08:27:07;;;;;;;8.83;5.50;;;20.20;42.00;;;;;;5099075;28;20452;-72
2022/05/03 08:29:35;;;;;;;5.00;4.50;;;20.30;41.50;;;;;;5100090;28;20448;-72
2022/05/03 08:32:02;;;;;;;5.80;3.83;;;20.50;40.80;;;;;;5099968;28;20989;-72
2022/05/03 08:34:29;;;;;;;4.60;3.73;;;20.60;41.30;;;;;;5099290;28;20455;-72
2022/05/03 08:42:27;;;;;;;8.73;4.87;;;21.40;40.20;;;;;;5098978;28;20435;-73
2022/05/03 08:44:59;;;;;;;5.27;3.80;;;21.60;40.20;;;;;;5099057;28;20467;-73
2022/05/03 08:47:27;;;;;;;4.60;3.63;;;21.90;39.10;;;;;;5099847;28;20781;-73
2022/05/03 08:50:00;;;;;;;7.03;4.20;;;22.00;36.70;;;;;;5099250;28;20494;-73
2022/05/03 08:52:28;;;;;;;5.43;3.40;;;22.20;37.30;;;;;;5098819;28;20475;-73
2022/05/03 08:54:57;;;;;;;4.70;3.10;;;22.20;36.60;;;;;;5099756;28;20452;-72
2022/05/03 08:57:24;;;;;;;7.07;3.50;;;22.40;36.30;;;;;;5098791;28;20503;-72
2022/05/03 08:59:52;;;;;;;8.63;3.23;;;22.50;35.30;;;;;;5098773;28;20474;-72
2022/05/03 09:02:19;;;;;;;3.20;2.57;;;22.60;34.90;;;;;;5099355;28;20476;-73
2022/05/03 09:04:46;;;;;;;3.33;2.83;;;22.70;35.40;;;;;;5097928;28;20543;-72
2022/05/03 09:07:19;;;;;;;6.20;3.10;;;22.90;35.80;;;;;;5098334;28;20460;-72
2022/05/03 09:09:46;;;;;;;3.77;2.83;;;23.10;35.60;;;;;;5097980;28;20448;-73
2022/05/03 09:12:23;;;;;;;3.60;2.30;;;23.30;35.20;;;;;;5098012;28;20470;-73
2022/05/03 09:14:50;;;;;;;2.80;2.03;;;23.60;35.50;;;;;;5098360;28;20443;-72
2022/05/03 09:17:35;;;;;;;5.70;3.20;;;23.80;35.20;;;;;;5097601;28;20993;-73
2022/05/03 09:23:46;;;;;;;8.40;3.57;;;23.90;32.30;;;;;;5097701;28;20972;-73
2022/05/03 09:25:38;;;;;;;5.43;3.10;;;23.90;31.30;;;;;;5097884;28;20454;-73
2022/05/03 09:28:08;;;;;;;4.10;2.60;;;23.90;32.50;;;;;;5098184;28;20466;-73
2022/05/03 09:30:35;;;;;;;4.43;2.67;;;23.90;29.50;;;;;;5097782;28;20458;-73
2022/05/03 09:33:03;;;;;;;4.63;2.40;;;23.80;32.20;;;;;;5098114;28;20938;-73
2022/05/03 09:35:34;;;;;;;8.80;2.90;;;24.10;32.40;;;;;;5098012;28;20451;-73
2022/05/03 09:38:03;;;;;;;8.23;2.93;;;24.30;32.60;;;;;;5097914;28;20467;-73
2022/05/03 09:40:35;;;;;;;2.80;2.40;;;24.60;32.40;;;;;;5097945;28;20509;-73
2022/05/03 09:43:02;;;;;;;4.97;2.70;;;24.90;31.00;;;;;;5098130;28;20436;-73
2022/05/03 09:45:29;;;;;;;2.73;2.43;;;25.10;30.40;;;;;;5097908;28;20851;-73
2022/05/03 09:47:59;;;;;;;5.43;2.90;;;25.30;29.00;;;;;;5098194;28;20814;-73
2022/05/03 09:50:43;;;;;;;3.03;2.27;;;25.30;28.20;;;;;;5097548;28;20860;-73
2022/05/03 09:53:14;;;;;;;2.67;2.00;;;25.40;28.50;;;;;;5096001;28;20479;-73
2022/05/03 09:55:42;;;;;;;2.80;2.27;;;25.60;29.10;;;;;;5097983;28;20443;-73
2022/05/03 09:58:11;;;;;;;2.50;2.30;;;25.90;28.90;;;;;;5097731;28;20487;-73
2022/05/03 10:00:40;;;;;;;2.67;1.80;;;26.20;29.10;;;;;;5097464;28;20954;-73
2022/05/03 10:03:09;;;;;;;8.07;2.23;;;26.50;28.90;;;;;;5097838;28;20454;-73
2022/05/03 10:05:39;;;;;;;4.20;2.33;;;26.70;27.80;;;;;;5097367;28;20455;-73
2022/05/03 10:08:07;;;;;;;6.03;3.67;;;26.90;27.60;;;;;;5097414;28;20444;-73
2022/05/03 10:10:35;;;;;;;7.80;3.10;;;27.20;26.90;;;;;;5096964;28;20454;-73
2022/05/03 10:13:02;;;;;;;6.67;3.17;;;27.40;26.30;;;;;;5097589;28;20447;-73
2022/05/03 10:21:14;;;;;;;7.93;3.40;;;28.40;27.00;;;;;;5096910;28;20443;-72
2022/05/03 10:23:41;;;;;;;6.53;2.60;;;28.90;26.40;;;;;;5096719;28;20451;-72
2022/05/03 10:26:10;;;;;;;5.07;3.60;;;29.40;25.50;;;;;;5096794;28;20457;-72
2022/05/03 10:29:07;;;;;;;6.70;3.17;;;29.70;23.60;;;;;;5096317;28;20548;-72
2022/05/03 10:31:53;;;;;;;3.57;3.27;;;29.90;24.30;;;;;;5096994;28;20481;-72
2022/05/03 10:34:42;;;;;;;22.17;4.70;;;29.90;23.00;;;;;;5097680;28;20764;-72
2022/05/03 10:37:11;;;;;;;3.53;3.10;;;30.20;24.50;;;;;;5096991;28;20495;-72
2022/05/03 10:39:46;;;;;;;7.70;3.73;;;30.70;23.70;;;;;;5095598;28;20491;-73
2022/05/03 10:42:15;;;;;;;5.23;3.03;;;31.10;23.70;;;;;;5096374;28;20523;-72
2022/05/03 10:44:45;;;;;;;6.13;4.37;;;31.70;23.60;;;;;;5095665;28;20459;-72
2022/05/03 10:47:14;;;;;;;4.83;3.23;;;32.40;23.10;;;;;;5095825;28;20487;-75
2022/05/03 10:50:17;;;;;;;4.63;3.90;;;32.80;21.70;;;;;;5095636;28;20454;-73
2022/05/03 10:52:47;;;;;;;6.23;3.77;;;33.30;21.80;;;;;;5095041;28;20482;-73
2022/05/03 10:55:15;;;;;;;5.07;4.20;;;33.70;20.70;;;;;;5096708;28;20447;-72
2022/05/03 10:58:20;;;;;;;5.63;4.40;;;33.80;19.90;;;;;;5095807;28;20474;-72
2022/05/03 11:01:07;;;;;;;7.43;3.90;;;33.70;19.70;;;;;;5095287;28;20451;-73
2022/05/03 11:03:35;;;;;;;8.17;4.60;;;33.60;20.20;;;;;;5096551;28;20427;-72
2022/05/03 11:06:32;;;;;;;12.33;5.00;;;33.90;21.00;;;;;;5095854;28;20451;-73
2022/05/03 11:09:11;;;;;;;4.80;4.30;;;34.40;20.80;;;;;;5095432;28;20847;-73
2022/05/03 11:11:55;;;;;;;5.83;4.30;;;35.00;20.20;;;;;;5095447;28;20467;-73
2022/05/03 11:14:59;;;;;;;4.93;4.40;;;35.40;17.90;;;;;;5095743;28;20427;-72
2022/05/03 11:17:26;;;;;;;5.03;4.63;;;35.50;17.80;;;;;;5095461;28;20981;-73
2022/05/03 11:19:58;;;;;;;4.80;3.80;;;35.80;18.10;;;;;;5095613;28;20462;-73
2022/05/03 11:22:35;;;;;;;3.90;3.50;;;36.00;18.70;;;;;;5095537;28;20505;-73
2022/05/03 11:25:12;;;;;;;7.00;4.10;;;36.40;18.20;;;;;;5095822;28;20466;-73
2022/05/03 11:27:40;;;;;;;3.80;3.50;;;36.60;17.70;;;;;;5095117;28;20522;-73
2022/05/03 11:30:09;;;;;;;4.40;3.50;;;36.30;17.70;;;;;;5095253;28;20435;-73
2022/05/03 11:32:38;;;;;;;5.20;3.80;;;36.40;17.50;;;;;;5095666;28;20463;-72
2022/05/03 11:35:07;;;;;;;4.47;4.07;;;36.50;17.50;;;;;;5095268;28;20465;-73
2022/05/03 11:37:35;;;;;;;4.60;3.70;;;36.40;17.00;;;;;;5094668;28;21005;-73
2022/05/03 11:40:10;;;;;;;4.67;4.37;;;36.20;17.20;;;;;;5095258;28;20459;-73
2022/05/03 11:42:42;;;;;;;9.03;4.60;;;36.20;16.70;;;;;;5095547;28;20463;-73
2022/05/03 11:45:10;;;;;;;3.60;3.30;;;36.20;16.40;;;;;;5095167;28;20848;-73
2022/05/03 11:47:39;;;;;;;3.70;3.40;;;36.30;17.80;;;;;;5095641;28;20447;-73
2022/05/03 11:50:08;;;;;;;5.13;2.70;;;36.30;16.40;;;;;;5095922;28;20827;-73
2022/05/03 11:58:06;;;;;;;3.50;3.20;;;36.40;16.70;;;;;;5098391;28;20258;-73
2022/05/03 12:00:45;;;;;;;3.87;3.50;;;36.40;16.50;;;;;;5098588;28;20209;-73
2022/05/03 12:03:12;;;;;;;2.40;2.20;;;36.50;16.40;;;;;;5098693;28;20443;-71
2022/05/03 12:05:40;;;;;;;3.20;2.90;;;36.80;17.40;;;;;;5098063;28;20451;-71
2022/05/03 12:08:18;;;;;;;6.17;2.50;;;37.30;17.70;;;;;;5098016;28;21009;-70
2022/05/03 12:10:49;;;;;;;2.60;2.40;;;38.00;17.50;;;;;;5098919;28;20489;-72
2022/05/03 12:13:18;;;;;;;2.90;2.22;;;38.60;16.90;;;;;;5098505;28;20660;-71
2022/05/03 12:15:47;;;;;;;3.10;2.83;;;39.20;16.00;;;;;;5098298;28;20600;-71
2022/05/03 12:18:16;;;;;;;2.58;2.47;;;39.80;14.80;;;;;;5097769;28;20288;-71
2022/05/03 12:20:47;;;;;;;2.80;2.60;;;40.00;13.70;;;;;;5097388;28;20202;-72
2022/05/03 12:23:19;;;;;;;2.42;2.22;;;39.90;14.20;;;;;;5097407;28;20181;-72
2022/05/03 12:25:49;;;;;;;2.22;2.08;;;39.90;14.40;;;;;;5097833;28;20185;-71
2022/05/03 12:28:17;;;;;;;3.55;2.33;;;40.00;14.10;;;;;;5098718;28;20197;-71
2022/05/03 12:30:44;;;;;;;3.05;2.20;;;40.20;14.90;;;;;;5097981;28;20201;-72
2022/05/03 12:33:15;;;;;;;2.30;1.92;;;40.70;14.70;;;;;;5097820;28;20220;-72
2022/05/03 12:35:44;;;;;;;3.10;2.00;;;41.00;13.90;;;;;;5097668;28;20242;-72
2022/05/03 12:38:13;;;;;;;2.50;2.30;;;41.40;14.20;;;;;;5097726;28;20217;-72
2022/05/03 12:40:45;;;;;;;2.60;2.40;;;41.80;13.70;;;;;;5097554;28;20197;-72
2022/05/03 12:43:16;;;;;;;3.00;2.80;;;42.20;12.70;;;;;;5097045;28;20564;-72
2022/05/03 12:45:43;;;;;;;3.15;2.50;;;42.20;12.60;;;;;;5097656;28;20192;-71
2022/05/03 12:48:10;;;;;;;2.40;2.20;;;42.20;13.30;;;;;;5097555;28;20596;-72
2022/05/03 12:50:38;;;;;;;3.10;2.03;;;42.20;13.50;;;;;;5097489;28;20634;-71
2022/05/03 12:53:05;;;;;;;2.90;2.53;;;42.40;12.50;;;;;;5079416;28;20293;-72
2022/05/03 12:55:32;;;;;;;3.25;2.90;;;42.50;12.40;;;;;;5077130;28;20213;-72
2022/05/03 13:00:44;;;;;;;3.88;2.25;;;42.50;12.40;;;;;;5077339;28;20636;-72
2022/05/03 13:03:12;;;;;;;3.75;3.05;;;42.20;12.40;;;;;;5076025;28;20202;-71
2022/05/03 13:05:39;;;;;;;2.97;2.60;;;42.00;11.70;;;;;;5076674;28;20248;-72
2022/05/03 13:08:07;;;;;;;4.28;2.75;;;41.70;12.70;;;;;;5076809;28;20689;-72
2022/05/03 13:10:37;;;;;;;5.40;2.13;;;41.70;12.70;;;;;;5076986;28;20248;-71
2022/05/03 13:13:05;;;;;;;3.30;3.10;;;41.80;12.90;;;;;;5076534;28;20272;-71
2022/05/03 13:15:31;;;;;;;2.72;2.53;;;42.00;12.90;;;;;;5076748;28;20208;-72
2022/05/03 13:18:00;;;;;;;3.42;3.20;;;42.00;12.40;;;;;;5076105;28;20214;-71
2022/05/03 13:20:27;;;;;;;3.03;2.78;;;42.10;12.80;;;;;;5076864;28;20229;-71
2022/05/03 13:22:54;;;;;;;2.90;2.70;;;42.30;12.90;;;;;;5076925;28;20229;-72
2022/05/03 13:25:21;;;;;;;3.65;2.70;;;42.50;12.40;;;;;;5075951;28;20205;-72
2022/05/03 13:27:49;;;;;;;2.78;2.58;;;42.50;12.40;;;;;;5076396;28;20197;-71
2022/05/03 13:30:16;;;;;;;3.05;2.75;;;42.70;13.30;;;;;;5076449;28;20205;-72
2022/05/03 13:32:43;;;;;;;2.63;2.42;;;42.90;12.10;;;;;;5075662;28;20600;-71
2022/05/03 13:35:11;;;;;;;2.28;1.92;;;43.20;12.20;;;;;;5076486;28;20205;-71
2022/05/03 13:40:34;;;;;;;3.50;3.20;;;43.60;11.90;;;;;;5075998;28;20181;-72